sensor_id;sensor_type;location;lat;lon;timestamp;pressure;altitude;pressure_sealevel;temperature;humidity
39105;BME280;46464;51.154;13.812;2023-03-19T00:01:45;52222.41;;;-146.96;51.91
39105;BME280;46464;51.154;13.812;2023-03-19T00:04:12;52216.31;;;-146.96;51.72
39105;BME280;46464;51.154;13.812;2023-03-19T00:06:38;52183.75;;;-146.96;51.78
39105;BME280;46464;51.154;13.812;2023-03-19T00:09:05;52222.41;;;-146.96;51.77
39105;BME280;46464;51.154;13.812;2023-03-19T00:11:31;52187.84;;;-146.96;51.81
39105;BME280;46464;51.154;13.812;2023-03-19T00:13:59;52224.47;;;-146.96;51.83
39105;BME280;46464;51.154;13.812;2023-03-19T00:16:26;52252.94;;;-146.96;51.99
39105;BME280;46464;51.154;13.812;2023-03-19T00:18:52;52228.53;;;-146.96;52.17
39105;BME280;46464;51.154;13.812;2023-03-19T00:21:20;52220.38;;;-146.96;52.26
39105;BME280;46464;51.154;13.812;2023-03-19T00:23:50;52214.28;;;-146.96;52.31
39105;BME280;46464;51.154;13.812;2023-03-19T00:26:21;52220.38;;;-146.96;52.34
39105;BME280;46464;51.154;13.812;2023-03-19T00:28:47;52246.84;;;-146.96;52.40
39105;BME280;46464;51.154;13.812;2023-03-19T00:31:15;52206.16;;;-146.96;52.27
39105;BME280;46464;51.154;13.812;2023-03-19T00:33:43;52242.78;;;-146.96;52.45
39105;BME280;46464;51.154;13.812;2023-03-19T00:36:10;52198.00;;;-146.96;52.23
39105;BME280;46464;51.154;13.812;2023-03-19T00:38:37;52220.38;;;-146.96;52.30
39105;BME280;46464;51.154;13.812;2023-03-19T00:41:04;52214.28;;;-146.96;52.20
39105;BME280;46464;51.154;13.812;2023-03-19T00:43:31;52218.34;;;-146.96;52.01
39105;BME280;46464;51.154;13.812;2023-03-19T00:45:59;52193.94;;;-146.96;52.14
39105;BME280;46464;51.154;13.812;2023-03-19T00:48:26;52208.19;;;-146.96;52.29
39105;BME280;46464;51.154;13.812;2023-03-19T00:50:53;52206.16;;;-146.96;52.47
39105;BME280;46464;51.154;13.812;2023-03-19T00:53:19;52228.53;;;-146.96;52.55
39105;BME280;46464;51.154;13.812;2023-03-19T00:55:46;52265.16;;;-146.96;52.66
39105;BME280;46464;51.154;13.812;2023-03-19T00:58:13;52200.03;;;-146.96;52.75
39105;BME280;46464;51.154;13.812;2023-03-19T01:00:39;52224.47;;;-146.96;52.96
39105;BME280;46464;51.154;13.812;2023-03-19T01:03:06;52248.88;;;-146.96;53.15
39105;BME280;46464;51.154;13.812;2023-03-19T01:05:35;52212.25;;;-146.96;53.08
39105;BME280;46464;51.154;13.812;2023-03-19T01:08:01;52216.31;;;-146.96;52.99
39105;BME280;46464;51.154;13.812;2023-03-19T01:10:28;52218.34;;;-146.96;52.94
39105;BME280;46464;51.154;13.812;2023-03-19T01:12:54;52216.31;;;-146.96;52.60
39105;BME280;46464;51.154;13.812;2023-03-19T01:15:21;52200.03;;;-146.96;52.63
39105;BME280;46464;51.154;13.812;2023-03-19T01:17:50;52185.81;;;-146.96;52.47
39105;BME280;46464;51.154;13.812;2023-03-19T01:20:16;52204.13;;;-146.96;52.38
39105;BME280;46464;51.154;13.812;2023-03-19T01:22:45;52214.28;;;-146.96;52.62
39105;BME280;46464;51.154;13.812;2023-03-19T01:25:12;52193.94;;;-146.96;52.74
39105;BME280;46464;51.154;13.812;2023-03-19T01:27:39;52214.28;;;-146.96;52.75
39105;BME280;46464;51.154;13.812;2023-03-19T01:30:06;52202.06;;;-146.96;52.88
39105;BME280;46464;51.154;13.812;2023-03-19T01:32:34;52224.47;;;-146.96;52.99
39105;BME280;46464;51.154;13.812;2023-03-19T01:35:00;52250.91;;;-146.96;52.93
39105;BME280;46464;51.154;13.812;2023-03-19T01:37:27;52218.34;;;-146.96;53.08
39105;BME280;46464;51.154;13.812;2023-03-19T01:39:54;52214.28;;;-146.96;53.07
39105;BME280;46464;51.154;13.812;2023-03-19T01:42:20;52224.47;;;-146.96;53.06
39105;BME280;46464;51.154;13.812;2023-03-19T01:44:47;52220.38;;;-146.96;53.11
39105;BME280;46464;51.154;13.812;2023-03-19T01:47:17;52252.94;;;-146.96;53.14
39105;BME280;46464;51.154;13.812;2023-03-19T01:49:54;52242.78;;;-146.96;53.22
39105;BME280;46464;51.154;13.812;2023-03-19T01:52:23;52246.84;;;-146.96;53.28
39105;BME280;46464;51.154;13.812;2023-03-19T01:54:51;52212.25;;;-146.96;53.25
39105;BME280;46464;51.154;13.812;2023-03-19T01:57:20;52234.63;;;-146.96;53.08
39105;BME280;46464;51.154;13.812;2023-03-19T01:59:50;52250.91;;;-146.96;53.10
39105;BME280;46464;51.154;13.812;2023-03-19T02:02:28;52250.91;;;-146.96;53.47
39105;BME280;46464;51.154;13.812;2023-03-19T02:05:00;52252.94;;;-146.96;53.60
39105;BME280;46464;51.154;13.812;2023-03-19T02:07:29;52216.31;;;-146.96;53.75
39105;BME280;46464;51.154;13.812;2023-03-19T02:09:57;52250.91;;;-146.96;53.82
39105;BME280;46464;51.154;13.812;2023-03-19T02:12:24;52267.19;;;-146.96;53.91
39105;BME280;46464;51.154;13.812;2023-03-19T02:14:51;52208.19;;;-146.96;53.62
39105;BME280;46464;51.154;13.812;2023-03-19T02:17:19;52248.88;;;-146.96;53.38
39105;BME280;46464;51.154;13.812;2023-03-19T02:19:58;52254.97;;;-146.96;53.40
39105;BME280;46464;51.154;13.812;2023-03-19T02:22:28;52269.22;;;-146.96;53.39
39105;BME280;46464;51.154;13.812;2023-03-19T02:25:01;52222.41;;;-146.96;53.46
39105;BME280;46464;51.154;13.812;2023-03-19T02:27:29;52204.13;;;-146.96;53.44
39105;BME280;46464;51.154;13.812;2023-03-19T02:29:56;52263.13;;;-146.96;53.39
39105;BME280;46464;51.154;13.812;2023-03-19T02:32:23;52240.75;;;-146.96;53.58
39105;BME280;46464;51.154;13.812;2023-03-19T02:34:49;52240.75;;;-146.96;53.88
39105;BME280;46464;51.154;13.812;2023-03-19T02:37:21;52267.19;;;-146.96;53.91
39105;BME280;46464;51.154;13.812;2023-03-19T02:40:08;52267.19;;;-146.96;54.08
39105;BME280;46464;51.154;13.812;2023-03-19T02:42:36;52267.19;;;-146.96;54.02
39105;BME280;46464;51.154;13.812;2023-03-19T02:45:03;52222.41;;;-146.96;53.96
39105;BME280;46464;51.154;13.812;2023-03-19T02:47:29;52281.44;;;-146.96;54.07
39105;BME280;46464;51.154;13.812;2023-03-19T02:49:56;52236.66;;;-146.96;53.74
39105;BME280;46464;51.154;13.812;2023-03-19T02:52:23;52283.47;;;-146.96;53.46
39105;BME280;46464;51.154;13.812;2023-03-19T02:54:49;52210.22;;;-146.96;53.11
39105;BME280;46464;51.154;13.812;2023-03-19T02:57:16;52238.69;;;-146.96;52.86
39105;BME280;46464;51.154;13.812;2023-03-19T02:59:42;52273.28;;;-146.96;52.99
39105;BME280;46464;51.154;13.812;2023-03-19T03:02:09;52220.38;;;-146.96;52.98
39105;BME280;46464;51.154;13.812;2023-03-19T03:04:36;52242.78;;;-146.96;53.07
39105;BME280;46464;51.154;13.812;2023-03-19T03:07:03;52228.53;;;-146.96;53.14
39105;BME280;46464;51.154;13.812;2023-03-19T03:09:30;52220.38;;;-146.96;53.07
39105;BME280;46464;51.154;13.812;2023-03-19T03:11:57;52238.69;;;-146.96;52.94
39105;BME280;46464;51.154;13.812;2023-03-19T03:14:23;52224.47;;;-146.96;53.03
39105;BME280;46464;51.154;13.812;2023-03-19T03:16:50;52252.94;;;-146.96;52.73
39105;BME280;46464;51.154;13.812;2023-03-19T03:19:16;52252.94;;;-146.96;52.48
39105;BME280;46464;51.154;13.812;2023-03-19T03:21:43;52216.31;;;-146.96;52.55
39105;BME280;46464;51.154;13.812;2023-03-19T03:24:09;52236.66;;;-146.96;52.68
39105;BME280;46464;51.154;13.812;2023-03-19T03:26:36;52265.16;;;-146.96;52.49
39105;BME280;46464;51.154;13.812;2023-03-19T03:29:05;52238.69;;;-146.96;52.13
39105;BME280;46464;51.154;13.812;2023-03-19T03:31:32;52246.84;;;-146.96;51.40
39105;BME280;46464;51.154;13.812;2023-03-19T03:34:00;52212.25;;;-146.96;51.62
39105;BME280;46464;51.154;13.812;2023-03-19T03:36:27;52234.63;;;-146.96;52.00
39105;BME280;46464;51.154;13.812;2023-03-19T03:38:54;52193.94;;;-146.96;52.39
39105;BME280;46464;51.154;13.812;2023-03-19T03:41:21;52261.09;;;-146.96;52.79
39105;BME280;46464;51.154;13.812;2023-03-19T03:43:47;52252.94;;;-146.96;52.89
39105;BME280;46464;51.154;13.812;2023-03-19T03:46:14;52263.13;;;-146.96;52.99
39105;BME280;46464;51.154;13.812;2023-03-19T03:48:40;52267.19;;;-146.96;53.51
39105;BME280;46464;51.154;13.812;2023-03-19T03:51:07;52269.22;;;-146.96;53.87
39105;BME280;46464;51.154;13.812;2023-03-19T03:53:33;52232.59;;;-146.96;54.28
39105;BME280;46464;51.154;13.812;2023-03-19T03:56:00;52269.22;;;-146.96;54.19
39105;BME280;46464;51.154;13.812;2023-03-19T03:58:26;52271.25;;;-146.96;54.48
39105;BME280;46464;51.154;13.812;2023-03-19T04:00:57;52291.59;;;-146.96;54.68
39105;BME280;46464;51.154;13.812;2023-03-19T04:03:24;52261.09;;;-146.96;55.05
39105;BME280;46464;51.154;13.812;2023-03-19T04:05:50;52326.19;;;-146.96;55.32
39105;BME280;46464;51.154;13.812;2023-03-19T04:08:17;52240.75;;;-146.96;55.56
39105;BME280;46464;51.154;13.812;2023-03-19T04:10:44;52287.53;;;-146.96;55.65
39105;BME280;46464;51.154;13.812;2023-03-19T04:13:16;52303.81;;;-146.96;55.66
39105;BME280;46464;51.154;13.812;2023-03-19T04:15:43;52289.56;;;-146.96;55.76
39105;BME280;46464;51.154;13.812;2023-03-19T04:18:09;52250.91;;;-146.96;55.86
39105;BME280;46464;51.154;13.812;2023-03-19T04:20:36;52297.72;;;-146.96;55.76
39105;BME280;46464;51.154;13.812;2023-03-19T04:23:03;52269.22;;;-146.96;55.82
39105;BME280;46464;51.154;13.812;2023-03-19T04:25:29;52281.44;;;-146.96;55.69
39105;BME280;46464;51.154;13.812;2023-03-19T04:27:56;52277.34;;;-146.96;55.64
39105;BME280;46464;51.154;13.812;2023-03-19T04:30:23;52252.94;;;-146.96;55.43
39105;BME280;46464;51.154;13.812;2023-03-19T04:32:50;52293.63;;;-146.96;55.41
39105;BME280;46464;51.154;13.812;2023-03-19T04:35:16;52285.50;;;-146.96;55.75
39105;BME280;46464;51.154;13.812;2023-03-19T04:37:43;52295.66;;;-146.96;55.68
39105;BME280;46464;51.154;13.812;2023-03-19T04:40:14;52320.09;;;-146.96;55.58
39105;BME280;46464;51.154;13.812;2023-03-19T04:42:42;52267.19;;;-146.96;55.83
39105;BME280;46464;51.154;13.812;2023-03-19T04:45:10;52261.09;;;-146.96;55.91
39105;BME280;46464;51.154;13.812;2023-03-19T04:47:37;52271.25;;;-146.96;55.91
39105;BME280;46464;51.154;13.812;2023-03-19T04:50:05;52279.41;;;-146.96;55.70
39105;BME280;46464;51.154;13.812;2023-03-19T04:52:35;52254.97;;;-146.96;55.99
39105;BME280;46464;51.154;13.812;2023-03-19T04:55:04;52293.63;;;-146.96;55.63
39105;BME280;46464;51.154;13.812;2023-03-19T04:57:30;52259.03;;;-146.96;55.52
39105;BME280;46464;51.154;13.812;2023-03-19T04:59:57;52273.28;;;-146.96;55.68
39105;BME280;46464;51.154;13.812;2023-03-19T05:02:23;52234.63;;;-146.96;55.66
39105;BME280;46464;51.154;13.812;2023-03-19T05:04:50;52271.25;;;-146.96;55.54
39105;BME280;46464;51.154;13.812;2023-03-19T05:07:16;52265.16;;;-146.96;55.64
39105;BME280;46464;51.154;13.812;2023-03-19T05:09:43;52275.31;;;-146.96;55.84
39105;BME280;46464;51.154;13.812;2023-03-19T05:12:11;52273.28;;;-146.96;55.69
39105;BME280;46464;51.154;13.812;2023-03-19T05:14:38;52254.97;;;-146.96;55.56
39105;BME280;46464;51.154;13.812;2023-03-19T05:17:04;52267.19;;;-146.96;55.42
39105;BME280;46464;51.154;13.812;2023-03-19T05:19:31;52281.44;;;-146.96;54.78
39105;BME280;46464;51.154;13.812;2023-03-19T05:21:57;52267.19;;;-146.96;54.82
39105;BME280;46464;51.154;13.812;2023-03-19T05:24:24;52275.31;;;-146.96;54.86
39105;BME280;46464;51.154;13.812;2023-03-19T05:26:50;52269.22;;;-146.96;54.95
39105;BME280;46464;51.154;13.812;2023-03-19T05:29:17;52271.25;;;-146.96;55.04
39105;BME280;46464;51.154;13.812;2023-03-19T05:31:44;52259.03;;;-146.96;55.02
39105;BME280;46464;51.154;13.812;2023-03-19T05:34:10;52242.78;;;-146.96;54.98
39105;BME280;46464;51.154;13.812;2023-03-19T05:36:37;52265.16;;;-146.96;55.32
39105;BME280;46464;51.154;13.812;2023-03-19T05:39:03;52295.66;;;-146.96;55.08
39105;BME280;46464;51.154;13.812;2023-03-19T05:41:31;52279.41;;;-146.96;55.25
39105;BME280;46464;51.154;13.812;2023-03-19T05:43:57;52259.03;;;-146.96;54.87
39105;BME280;46464;51.154;13.812;2023-03-19T05:46:24;52261.09;;;-146.96;54.87
39105;BME280;46464;51.154;13.812;2023-03-19T05:49:00;52291.59;;;-146.96;54.78
39105;BME280;46464;51.154;13.812;2023-03-19T05:51:26;52244.81;;;-146.96;55.02
39105;BME280;46464;51.154;13.812;2023-03-19T05:53:52;52279.41;;;-146.96;54.90
39105;BME280;46464;51.154;13.812;2023-03-19T05:56:19;52238.69;;;-146.96;55.07
39105;BME280;46464;51.154;13.812;2023-03-19T05:58:45;52297.72;;;-146.96;54.98
39105;BME280;46464;51.154;13.812;2023-03-19T06:01:12;52285.50;;;-146.96;55.23
39105;BME280;46464;51.154;13.812;2023-03-19T06:03:39;52254.97;;;-146.96;55.30
39105;BME280;46464;51.154;13.812;2023-03-19T06:06:06;52257.00;;;-146.96;55.09
39105;BME280;46464;51.154;13.812;2023-03-19T06:08:33;52303.81;;;-146.96;55.09
39105;BME280;46464;51.154;13.812;2023-03-19T06:10:59;52291.59;;;-146.96;54.95
39105;BME280;46464;51.154;13.812;2023-03-19T06:13:25;52269.22;;;-146.96;54.53
39105;BME280;46464;51.154;13.812;2023-03-19T06:15:52;52265.16;;;-146.96;54.27
39105;BME280;46464;51.154;13.812;2023-03-19T06:18:18;52226.50;;;-146.96;54.06
39105;BME280;46464;51.154;13.812;2023-03-19T06:20:45;52238.69;;;-146.96;53.72
39105;BME280;46464;51.154;13.812;2023-03-19T06:23:13;52257.00;;;-146.96;53.14
39105;BME280;46464;51.154;13.812;2023-03-19T06:25:41;52234.63;;;-146.96;52.98
39105;BME280;46464;51.154;13.812;2023-03-19T06:28:08;52269.22;;;-146.96;52.83
39105;BME280;46464;51.154;13.812;2023-03-19T06:30:35;52244.81;;;-146.96;52.66
39105;BME280;46464;51.154;13.812;2023-03-19T06:33:02;52263.13;;;-146.96;52.61
39105;BME280;46464;51.154;13.812;2023-03-19T06:35:28;52295.66;;;-146.96;52.60
39105;BME280;46464;51.154;13.812;2023-03-19T06:37:55;52261.09;;;-146.96;52.48
39105;BME280;46464;51.154;13.812;2023-03-19T06:40:22;52257.00;;;-146.96;52.63
39105;BME280;46464;51.154;13.812;2023-03-19T06:42:51;52252.94;;;-146.96;52.50
39105;BME280;46464;51.154;13.812;2023-03-19T06:45:18;52208.19;;;-146.96;52.54
39105;BME280;46464;51.154;13.812;2023-03-19T06:47:45;52238.69;;;-146.96;52.42
39105;BME280;46464;51.154;13.812;2023-03-19T06:50:14;52254.97;;;-146.96;52.40
39105;BME280;46464;51.154;13.812;2023-03-19T06:52:43;52228.53;;;-146.96;51.82
39105;BME280;46464;51.154;13.812;2023-03-19T06:55:10;52228.53;;;-146.96;52.03
39105;BME280;46464;51.154;13.812;2023-03-19T06:57:38;52246.84;;;-146.96;52.01
39105;BME280;46464;51.154;13.812;2023-03-19T07:00:05;52232.59;;;-146.96;51.91
39105;BME280;46464;51.154;13.812;2023-03-19T07:02:32;52210.22;;;-146.96;51.63
39105;BME280;46464;51.154;13.812;2023-03-19T07:04:58;52246.84;;;-146.96;51.25
39105;BME280;46464;51.154;13.812;2023-03-19T07:07:25;52187.84;;;-146.96;51.50
39105;BME280;46464;51.154;13.812;2023-03-19T07:09:51;52218.34;;;-146.96;51.15
39105;BME280;46464;51.154;13.812;2023-03-19T07:12:18;52202.06;;;-146.96;50.92
39105;BME280;46464;51.154;13.812;2023-03-19T07:14:44;52232.59;;;-146.96;50.52
39105;BME280;46464;51.154;13.812;2023-03-19T07:17:11;52216.31;;;-146.96;50.17
39105;BME280;46464;51.154;13.812;2023-03-19T07:19:38;52175.63;;;-146.96;49.54
39105;BME280;46464;51.154;13.812;2023-03-19T07:22:04;52185.81;;;-146.96;49.38
39105;BME280;46464;51.154;13.812;2023-03-19T07:24:34;52163.41;;;-146.96;49.55
39105;BME280;46464;51.154;13.812;2023-03-19T07:27:00;52143.06;;;-146.96;49.32
39105;BME280;46464;51.154;13.812;2023-03-19T07:29:28;52169.53;;;-146.96;48.98
39105;BME280;46464;51.154;13.812;2023-03-19T07:31:54;52161.38;;;-146.96;48.87
39105;BME280;46464;51.154;13.812;2023-03-19T07:34:23;52179.69;;;-146.96;48.75
39105;BME280;46464;51.154;13.812;2023-03-19T07:36:49;52167.50;;;-146.96;48.97
39105;BME280;46464;51.154;13.812;2023-03-19T07:39:16;52155.28;;;-146.96;48.58
39105;BME280;46464;51.154;13.812;2023-03-19T07:41:43;52151.22;;;-146.96;48.67
39105;BME280;46464;51.154;13.812;2023-03-19T07:44:12;52165.44;;;-146.96;48.33
39105;BME280;46464;51.154;13.812;2023-03-19T07:46:38;52169.53;;;-146.96;48.50
39105;BME280;46464;51.154;13.812;2023-03-19T07:49:05;52163.41;;;-146.96;48.83
39105;BME280;46464;51.154;13.812;2023-03-19T07:51:32;52155.28;;;-146.96;49.07
39105;BME280;46464;51.154;13.812;2023-03-19T07:54:00;52116.63;;;-146.96;49.30
39105;BME280;46464;51.154;13.812;2023-03-19T07:56:26;52114.59;;;-146.96;48.93
39105;BME280;46464;51.154;13.812;2023-03-19T07:58:53;52124.75;;;-146.96;49.06
39105;BME280;46464;51.154;13.812;2023-03-19T08:01:19;52143.06;;;-146.96;48.86
39105;BME280;46464;51.154;13.812;2023-03-19T08:03:46;52112.56;;;-146.96;48.48
39105;BME280;46464;51.154;13.812;2023-03-19T08:06:16;52126.78;;;-146.96;48.71
39105;BME280;46464;51.154;13.812;2023-03-19T08:08:43;52126.78;;;-146.96;48.35
39105;BME280;46464;51.154;13.812;2023-03-19T08:11:09;52126.78;;;-146.96;48.44
39105;BME280;46464;51.154;13.812;2023-03-19T08:13:36;52124.75;;;-146.96;48.01
39105;BME280;46464;51.154;13.812;2023-03-19T08:16:02;52167.50;;;-146.96;48.58
39105;BME280;46464;51.154;13.812;2023-03-19T08:18:29;52114.59;;;-146.96;47.91
39105;BME280;46464;51.154;13.812;2023-03-19T08:20:55;52102.38;;;-146.96;48.14
39105;BME280;46464;51.154;13.812;2023-03-19T08:23:21;52088.13;;;-146.96;47.72
39105;BME280;46464;51.154;13.812;2023-03-19T08:25:49;52114.59;;;-146.96;48.10
39105;BME280;46464;51.154;13.812;2023-03-19T08:28:17;52084.06;;;-146.96;47.54
39105;BME280;46464;51.154;13.812;2023-03-19T08:30:47;52106.44;;;-146.96;47.40
39105;BME280;46464;51.154;13.812;2023-03-19T08:33:16;52069.81;;;-146.96;47.30
39105;BME280;46464;51.154;13.812;2023-03-19T08:35:45;52073.91;;;-146.96;47.02
39105;BME280;46464;51.154;13.812;2023-03-19T08:38:12;52061.69;;;-146.96;46.93
39105;BME280;46464;51.154;13.812;2023-03-19T08:40:38;52037.28;;;-146.96;47.59
39105;BME280;46464;51.154;13.812;2023-03-19T08:43:05;52049.47;;;-146.96;47.67
39105;BME280;46464;51.154;13.812;2023-03-19T08:45:32;52067.78;;;-146.96;46.91
39105;BME280;46464;51.154;13.812;2023-03-19T08:47:59;52065.75;;;-146.96;46.78
39105;BME280;46464;51.154;13.812;2023-03-19T08:50:25;52057.63;;;-146.96;46.92
39105;BME280;46464;51.154;13.812;2023-03-19T08:52:52;52053.53;;;-146.96;46.85
39105;BME280;46464;51.154;13.812;2023-03-19T08:55:19;52018.97;;;-146.96;46.10
39105;BME280;46464;51.154;13.812;2023-03-19T08:57:45;52016.94;;;-146.96;45.50
39105;BME280;46464;51.154;13.812;2023-03-19T09:00:13;52039.31;;;-146.96;45.67
39105;BME280;46464;51.154;13.812;2023-03-19T09:02:40;51986.41;;;-146.96;45.94
39105;BME280;46464;51.154;13.812;2023-03-19T09:05:07;52037.28;;;-146.96;45.94
39105;BME280;46464;51.154;13.812;2023-03-19T09:07:33;52027.09;;;-146.96;45.69
39105;BME280;46464;51.154;13.812;2023-03-19T09:10:00;52023.03;;;-146.96;44.73
39105;BME280;46464;51.154;13.812;2023-03-19T09:12:29;52016.94;;;-146.96;45.25
39105;BME280;46464;51.154;13.812;2023-03-19T09:14:55;52033.19;;;-146.96;44.93
39105;BME280;46464;51.154;13.812;2023-03-19T09:17:22;51982.34;;;-146.96;44.60
39105;BME280;46464;51.154;13.812;2023-03-19T09:19:48;51990.47;;;-146.96;45.10
39105;BME280;46464;51.154;13.812;2023-03-19T09:22:17;51951.81;;;-146.96;45.11
39105;BME280;46464;51.154;13.812;2023-03-19T09:24:43;51998.63;;;-146.96;44.87
39105;BME280;46464;51.154;13.812;2023-03-19T09:27:10;52004.72;;;-146.96;45.01
39105;BME280;46464;51.154;13.812;2023-03-19T09:29:37;52008.78;;;-146.96;44.47
39105;BME280;46464;51.154;13.812;2023-03-19T09:32:04;51998.63;;;-146.96;44.46
39105;BME280;46464;51.154;13.812;2023-03-19T09:34:31;52010.81;;;-146.96;42.49
39105;BME280;46464;51.154;13.812;2023-03-19T09:36:57;52004.72;;;-146.96;43.07
39105;BME280;46464;51.154;13.812;2023-03-19T09:39:24;51994.53;;;-146.96;43.82
39105;BME280;46464;51.154;13.812;2023-03-19T09:42:39;52008.78;;;-146.96;43.22
39105;BME280;46464;51.154;13.812;2023-03-19T09:44:39;51947.75;;;-146.96;43.88
39105;BME280;46464;51.154;13.812;2023-03-19T09:47:23;51978.28;;;-146.96;44.22
39105;BME280;46464;51.154;13.812;2023-03-19T09:49:52;51972.16;;;-146.96;44.41
39105;BME280;46464;51.154;13.812;2023-03-19T09:55:24;51945.72;;;-146.96;44.43
39105;BME280;46464;51.154;13.812;2023-03-19T09:57:55;51931.47;;;-146.96;44.56
39105;BME280;46464;51.154;13.812;2023-03-19T10:00:29;51919.28;;;-146.96;43.98
39105;BME280;46464;51.154;13.812;2023-03-19T10:03:09;51931.47;;;-146.96;44.29
39105;BME280;46464;51.154;13.812;2023-03-19T10:05:55;51923.34;;;-146.96;43.90
39105;BME280;46464;51.154;13.812;2023-03-19T10:08:36;51941.66;;;-146.96;42.93
39105;BME280;46464;51.154;13.812;2023-03-19T10:11:37;51947.75;;;-146.96;42.37
39105;BME280;46464;51.154;13.812;2023-03-19T10:17:07;51951.81;;;-146.96;43.23
39105;BME280;46464;51.154;13.812;2023-03-19T10:22:19;51929.44;;;-146.96;43.04
39105;BME280;46464;51.154;13.812;2023-03-19T10:24:47;51919.28;;;-146.96;43.37
39105;BME280;46464;51.154;13.812;2023-03-19T10:27:18;51915.19;;;-146.96;42.60
39105;BME280;46464;51.154;13.812;2023-03-19T10:29:45;51919.28;;;-146.96;42.49
39105;BME280;46464;51.154;13.812;2023-03-19T10:34:43;51890.78;;;-146.96;43.00
39105;BME280;46464;51.154;13.812;2023-03-19T10:37:19;51927.41;;;-146.96;42.92
39105;BME280;46464;51.154;13.812;2023-03-19T10:39:51;51907.06;;;-146.96;42.09
39105;BME280;46464;51.154;13.812;2023-03-19T10:42:52;51892.81;;;-146.96;42.35
39105;BME280;46464;51.154;13.812;2023-03-19T10:45:30;51856.19;;;-146.96;41.80
39105;BME280;46464;51.154;13.812;2023-03-19T10:47:59;51878.56;;;-146.96;41.89
39105;BME280;46464;51.154;13.812;2023-03-19T10:50:32;51886.72;;;-146.96;41.00
39105;BME280;46464;51.154;13.812;2023-03-19T10:53:06;51846.03;;;-146.96;41.39
39105;BME280;46464;51.154;13.812;2023-03-19T10:55:53;51898.91;;;-146.96;40.85
39105;BME280;46464;51.154;13.812;2023-03-19T10:58:27;51860.25;;;-146.96;41.51
39105;BME280;46464;51.154;13.812;2023-03-19T11:01:07;51864.34;;;-146.96;41.97
39105;BME280;46464;51.154;13.812;2023-03-19T11:03:58;51860.25;;;-146.96;42.01
39105;BME280;46464;51.154;13.812;2023-03-19T11:14:50;51860.25;;;-146.96;40.93
39105;BME280;46464;51.154;13.812;2023-03-19T11:17:26;51827.72;;;-146.96;41.56
39105;BME280;46464;51.154;13.812;2023-03-19T11:19:56;51856.19;;;-146.96;42.27
39105;BME280;46464;51.154;13.812;2023-03-19T11:22:29;51846.03;;;-146.96;41.18
39105;BME280;46464;51.154;13.812;2023-03-19T11:25:22;51823.66;;;-146.96;41.57
39105;BME280;46464;51.154;13.812;2023-03-19T11:27:59;51864.34;;;-146.96;41.25
39105;BME280;46464;51.154;13.812;2023-03-19T11:30:36;51809.41;;;-146.96;41.76
39105;BME280;46464;51.154;13.812;2023-03-19T11:33:18;51829.75;;;-146.96;40.54
39105;BME280;46464;51.154;13.812;2023-03-19T11:41:10;51817.53;;;-146.96;40.77
39105;BME280;46464;51.154;13.812;2023-03-19T11:43:54;51839.91;;;-146.96;41.03
39105;BME280;46464;51.154;13.812;2023-03-19T11:49:15;51803.31;;;-146.96;41.00
39105;BME280;46464;51.154;13.812;2023-03-19T11:51:57;51852.13;;;-146.96;41.57
39105;BME280;46464;51.154;13.812;2023-03-19T11:57:03;51858.22;;;-146.96;41.10
39105;BME280;46464;51.154;13.812;2023-03-19T12:11:02;51797.19;;;-146.96;40.85
39105;BME280;46464;51.154;13.812;2023-03-19T12:16:31;51805.34;;;-146.96;39.88
39105;BME280;46464;51.154;13.812;2023-03-19T12:19:37;51813.47;;;-146.96;39.44
39105;BME280;46464;51.154;13.812;2023-03-19T12:22:39;51805.34;;;-146.96;39.70
39105;BME280;46464;51.154;13.812;2023-03-19T12:25:21;51774.81;;;-146.96;39.99
39105;BME280;46464;51.154;13.812;2023-03-19T12:27:57;51789.06;;;-146.96;39.67
39105;BME280;46464;51.154;13.812;2023-03-19T12:30:36;51770.75;;;-146.96;39.48
39105;BME280;46464;51.154;13.812;2023-03-19T12:35:52;51791.09;;;-146.96;39.64
39105;BME280;46464;51.154;13.812;2023-03-19T12:38:34;51811.44;;;-146.96;39.61
39105;BME280;46464;51.154;13.812;2023-03-19T12:41:05;51772.78;;;-146.96;39.57
39105;BME280;46464;51.154;13.812;2023-03-19T12:43:50;51760.56;;;-146.96;38.95
39105;BME280;46464;51.154;13.812;2023-03-19T12:46:30;51801.25;;;-146.96;39.59
39105;BME280;46464;51.154;13.812;2023-03-19T12:49:17;51797.19;;;-146.96;39.87
39105;BME280;46464;51.154;13.812;2023-03-19T12:51:52;51750.41;;;-146.96;39.37
39105;BME280;46464;51.154;13.812;2023-03-19T12:54:24;51772.78;;;-146.96;39.77
39105;BME280;46464;51.154;13.812;2023-03-19T12:57:03;51750.41;;;-146.96;39.65
39105;BME280;46464;51.154;13.812;2023-03-19T12:59:47;51789.06;;;-146.96;39.23
39105;BME280;46464;51.154;13.812;2023-03-19T13:02:41;51726.00;;;-146.96;39.71
39105;BME280;46464;51.154;13.812;2023-03-19T13:05:31;51787.03;;;-146.96;39.37
39105;BME280;46464;51.154;13.812;2023-03-19T13:08:15;51772.78;;;-146.96;39.93
39105;BME280;46464;51.154;13.812;2023-03-19T13:10:45;51797.19;;;-146.96;40.32
39105;BME280;46464;51.154;13.812;2023-03-19T13:13:35;51766.69;;;-146.96;40.16
39105;BME280;46464;51.154;13.812;2023-03-19T13:19:17;51746.34;;;-146.96;39.93
39105;BME280;46464;51.154;13.812;2023-03-19T13:21:49;51791.09;;;-146.96;40.57
39105;BME280;46464;51.154;13.812;2023-03-19T13:24:30;51768.72;;;-146.96;40.77
39105;BME280;46464;51.154;13.812;2023-03-19T13:27:00;51785.00;;;-146.96;40.49
39105;BME280;46464;51.154;13.812;2023-03-19T13:29:31;51785.00;;;-146.96;40.72
39105;BME280;46464;51.154;13.812;2023-03-19T13:32:08;51799.22;;;-146.96;41.99
39105;BME280;46464;51.154;13.812;2023-03-19T13:34:48;51815.50;;;-146.96;42.31